Time;durP1;ratioP1;P1;durP2;ratioP2;P2;SDS_P1;SDS_P2;PMS_P1;PMS_P2;Temp;Humidity;BMP_temperature;BMP_pressure;BME280_temperature;BME280_humidity;BME280_pressure;Samples;Min_cycle;Max_cycle;Signal;HPM_P1;HPM_P2
2023/05/06 00:02:07;;;;;;;9.85;5.32;;;15.50;99.90;;;;;;4991648;28;20022;-77
2023/05/06 00:04:33;;;;;;;7.88;5.78;;;15.40;99.90;;;;;;4993879;28;20019;-77
2023/05/06 00:06:59;;;;;;;9.38;4.75;;;15.40;99.90;;;;;;4992709;28;20085;-77
2023/05/06 00:09:25;;;;;;;9.48;5.15;;;15.40;99.90;;;;;;4992414;28;20022;-77
2023/05/06 00:11:51;;;;;;;6.65;4.72;;;15.40;99.90;;;;;;4992929;28;20030;-77
2023/05/06 00:14:16;;;;;;;6.40;4.53;;;15.30;99.90;;;;;;5009595;28;20034;-77
2023/05/06 00:16:42;;;;;;;7.50;4.63;;;15.30;99.90;;;;;;4998496;28;20022;-77
2023/05/06 00:19:11;;;;;;;6.78;4.35;;;15.30;99.90;;;;;;4997229;28;20018;-77
2023/05/06 00:21:39;;;;;;;6.28;4.60;;;15.30;99.90;;;;;;4991800;28;20126;-77
2023/05/06 00:24:08;;;;;;;5.57;4.15;;;15.30;99.90;;;;;;4989639;28;20092;-77
2023/05/06 00:26:33;;;;;;;7.47;4.72;;;15.30;99.90;;;;;;4995917;28;20102;-78
2023/05/06 00:28:59;;;;;;;6.65;4.43;;;15.30;99.90;;;;;;4993945;28;20023;-77
2023/05/06 00:31:24;;;;;;;8.35;5.00;;;15.30;99.90;;;;;;4997844;28;20076;-78
2023/05/06 00:33:50;;;;;;;7.55;4.72;;;15.30;99.90;;;;;;4995411;28;20034;-78
2023/05/06 00:36:16;;;;;;;7.63;4.47;;;15.30;99.90;;;;;;4972491;28;20038;-77
2023/05/06 00:38:41;;;;;;;7.18;4.38;;;15.20;99.90;;;;;;4971896;28;20027;-77
2023/05/06 00:41:13;;;;;;;6.45;4.68;;;15.20;99.90;;;;;;4990515;28;20022;-77
2023/05/06 00:43:39;;;;;;;6.13;4.35;;;15.30;99.90;;;;;;4990219;28;20425;-77
2023/05/06 00:46:08;;;;;;;6.15;4.20;;;15.30;99.90;;;;;;4996181;28;20066;-78
2023/05/06 00:48:35;;;;;;;5.70;3.83;;;15.30;99.90;;;;;;4992913;28;20026;-77
2023/05/06 00:51:00;;;;;;;9.30;4.68;;;15.20;99.90;;;;;;4993630;28;20030;-78
2023/05/06 00:53:29;;;;;;;7.65;4.72;;;15.20;99.90;;;;;;4994184;28;20565;-78
2023/05/06 00:55:55;;;;;;;7.40;4.40;;;15.20;99.90;;;;;;4996771;28;20042;-78
2023/05/06 00:58:21;;;;;;;8.18;5.47;;;15.30;99.90;;;;;;4994372;28;20034;-78
2023/05/06 01:00:51;;;;;;;8.32;5.32;;;15.30;99.90;;;;;;5006155;28;20037;-78
2023/05/06 01:03:17;;;;;;;6.18;4.45;;;15.20;99.90;;;;;;4996684;28;20023;-77
2023/05/06 01:06:06;;;;;;;8.05;4.22;;;15.30;99.90;;;;;;4991059;28;20061;-76
2023/05/06 01:08:45;;;;;;;7.00;4.68;;;15.30;99.90;;;;;;4993375;28;21428;-77
2023/05/06 01:11:16;;;;;;;7.18;4.82;;;15.20;99.90;;;;;;4993994;28;20030;-77
2023/05/06 01:13:55;;;;;;;7.35;4.60;;;15.20;99.90;;;;;;4993421;28;20037;-77
2023/05/06 01:16:28;;;;;;;6.53;5.30;;;15.20;99.90;;;;;;4991622;28;20030;-77
2023/05/06 01:18:54;;;;;;;6.13;4.88;;;15.20;99.90;;;;;;4990091;28;20026;-77
2023/05/06 01:21:21;;;;;;;7.28;4.93;;;15.10;99.90;;;;;;4992806;28;20026;-77
2023/05/06 01:23:57;;;;;;;8.57;5.03;;;15.20;99.90;;;;;;4996121;28;20026;-78
2023/05/06 01:26:23;;;;;;;8.68;5.43;;;15.10;99.90;;;;;;5018222;23;20052;-78
2023/05/06 01:28:50;;;;;;;6.13;4.85;;;15.10;99.90;;;;;;4999998;28;20019;-78
2023/05/06 01:31:28;;;;;;;5.60;4.40;;;15.10;99.90;;;;;;5002127;28;20034;-79
2023/05/06 01:34:12;;;;;;;5.82;4.85;;;15.00;99.90;;;;;;5004169;28;20085;-78
2023/05/06 01:36:41;;;;;;;;;;;15.00;99.90;;;;;;5005118;28;20034;-78
2023/05/06 01:39:06;;;;;;;6.85;4.78;;;14.90;99.90;;;;;;5000287;28;19936;-78
2023/05/06 01:41:33;;;;;;;12.80;4.72;;;14.90;99.90;;;;;;4991561;28;20019;-77
2023/05/06 01:44:00;;;;;;;7.80;4.72;;;14.90;99.90;;;;;;4990590;28;20030;-78
2023/05/06 01:46:28;;;;;;;5.90;5.00;;;14.80;99.90;;;;;;5002570;28;20026;-79
2023/05/06 01:48:56;;;;;;;6.85;4.95;;;14.70;99.90;;;;;;5000078;28;20032;-78
2023/05/06 01:51:23;;;;;;;10.20;5.45;;;14.70;99.90;;;;;;5002972;28;20435;-79
2023/05/06 01:53:48;;;;;;;8.13;5.65;;;14.60;99.90;;;;;;5000799;28;20027;-79
2023/05/06 01:56:16;;;;;;;8.10;5.60;;;14.60;99.90;;;;;;5005370;28;20029;-80
2023/05/06 01:58:41;;;;;;;7.72;5.53;;;14.60;99.90;;;;;;5000260;28;20062;-79
2023/05/06 02:01:07;;;;;;;9.05;5.13;;;14.50;99.90;;;;;;5003644;28;20030;-79
2023/05/06 02:03:33;;;;;;;9.35;5.93;;;14.50;99.90;;;;;;5002655;28;20022;-79
2023/05/06 02:06:01;;;;;;;9.32;6.00;;;14.40;99.90;;;;;;5000600;28;20038;-80
2023/05/06 02:08:27;;;;;;;7.70;5.35;;;14.40;99.90;;;;;;5011655;28;20058;-79
2023/05/06 02:10:53;;;;;;;10.50;5.90;;;14.40;99.90;;;;;;4982659;28;20038;-79
2023/05/06 02:13:20;;;;;;;8.82;5.28;;;14.40;99.90;;;;;;5003513;28;20039;-79
2023/05/06 02:15:46;;;;;;;8.88;5.32;;;14.40;99.90;;;;;;4995215;28;20110;-80
2023/05/06 02:18:11;;;;;;;7.07;5.90;;;14.40;99.90;;;;;;4999761;28;20303;-80
2023/05/06 02:20:40;;;;;;;8.73;5.45;;;14.40;99.90;;;;;;4981393;28;20615;-79
2023/05/06 02:23:05;;;;;;;8.20;5.25;;;14.40;99.90;;;;;;5012450;28;20084;-78
2023/05/06 02:25:32;;;;;;;7.10;5.10;;;14.40;99.90;;;;;;4998424;28;20444;-78
2023/05/06 02:27:57;;;;;;;11.77;5.30;;;14.40;99.90;;;;;;4994327;28;20479;-78
2023/05/06 02:30:29;;;;;;;5.30;4.13;;;14.30;99.90;;;;;;4998514;28;20034;-79
2023/05/06 02:32:56;;;;;;;5.80;4.60;;;14.30;99.90;;;;;;5001260;28;20030;-78
2023/05/06 02:35:22;;;;;;;7.07;4.78;;;14.30;99.90;;;;;;4986390;28;20026;-78
2023/05/06 02:37:48;;;;;;;7.68;4.97;;;14.30;99.90;;;;;;4997773;28;20030;-80
2023/05/06 02:40:17;;;;;;;6.88;4.90;;;14.30;99.90;;;;;;4999289;28;20033;-80
2023/05/06 02:42:49;;;;;;;9.93;4.70;;;14.20;99.90;;;;;;4998274;28;20034;-80
2023/05/06 02:45:15;;;;;;;7.13;4.20;;;14.20;99.90;;;;;;5001192;28;20408;-80
2023/05/06 02:47:43;;;;;;;10.27;4.78;;;14.20;99.90;;;;;;4986821;28;20114;-79
2023/05/06 02:50:09;;;;;;;7.70;4.60;;;14.10;99.90;;;;;;4981840;28;20030;-79
2023/05/06 02:52:34;;;;;;;6.90;4.35;;;14.10;99.90;;;;;;4985403;28;20026;-79
2023/05/06 02:55:04;;;;;;;7.38;4.50;;;14.10;99.90;;;;;;4999100;28;20615;-79
2023/05/06 02:57:30;;;;;;;9.13;5.00;;;14.10;99.90;;;;;;4999836;28;20022;-78
2023/05/06 02:59:58;;;;;;;6.00;4.72;;;14.10;99.90;;;;;;4998986;28;20038;-77
2023/05/06 03:02:24;;;;;;;9.10;4.85;;;14.00;99.90;;;;;;4981971;28;20053;-78
2023/05/06 03:04:50;;;;;;;6.18;4.68;;;14.00;99.90;;;;;;4979545;28;20022;-79
2023/05/06 03:07:22;;;;;;;5.45;4.20;;;13.90;99.90;;;;;;4997262;28;20060;-79
2023/05/06 03:09:48;;;;;;;6.03;3.95;;;13.90;99.90;;;;;;4981256;28;20066;-79
2023/05/06 03:12:14;;;;;;;5.00;3.92;;;13.90;99.90;;;;;;4998470;28;20511;-78
2023/05/06 03:14:40;;;;;;;11.00;4.70;;;13.90;99.90;;;;;;4996786;28;20535;-78
2023/05/06 03:17:06;;;;;;;6.50;4.40;;;13.80;99.90;;;;;;4996753;28;20331;-79
2023/05/06 03:19:32;;;;;;;4.93;4.10;;;13.80;99.90;;;;;;4980476;28;20035;-78
2023/05/06 03:21:57;;;;;;;6.88;4.60;;;13.70;99.90;;;;;;4994170;28;20034;-78
2023/05/06 03:24:23;;;;;;;7.80;4.80;;;13.70;99.90;;;;;;5000558;28;20034;-78
2023/05/06 03:26:49;;;;;;;7.47;4.10;;;13.70;99.90;;;;;;5002791;28;20042;-79
2023/05/06 03:29:15;;;;;;;6.78;4.13;;;13.60;99.90;;;;;;4982111;28;20053;-80
2023/05/06 03:31:43;;;;;;;4.47;3.55;;;13.60;99.90;;;;;;4996013;28;20068;-77
2023/05/06 03:34:18;;;;;;;7.70;4.60;;;13.50;99.90;;;;;;4996065;28;20035;-79
2023/05/06 03:36:44;;;;;;;8.02;4.30;;;13.50;99.90;;;;;;4994198;28;20019;-79
2023/05/06 03:39:10;;;;;;;7.18;4.38;;;13.50;99.90;;;;;;5002774;28;20057;-80
2023/05/06 03:41:39;;;;;;;8.07;3.92;;;13.40;99.90;;;;;;5002313;28;20029;-77
2023/05/06 03:44:08;;;;;;;11.32;3.67;;;13.40;99.90;;;;;;4999726;28;20233;-80
2023/05/06 03:46:33;;;;;;;4.95;3.63;;;13.40;99.90;;;;;;5010842;28;20054;-78
2023/05/06 03:49:01;;;;;;;6.95;3.58;;;13.40;99.90;;;;;;5007828;28;20034;-78
2023/05/06 03:51:30;;;;;;;7.22;3.92;;;13.40;99.90;;;;;;5008880;28;20026;-79
2023/05/06 03:53:59;;;;;;;4.50;3.75;;;13.40;99.90;;;;;;5000301;28;20038;-79
2023/05/06 03:56:25;;;;;;;6.25;3.90;;;13.40;99.90;;;;;;4986709;28;20026;-78
2023/05/06 03:58:52;;;;;;;8.18;3.85;;;13.30;99.90;;;;;;5001156;28;20050;-79
2023/05/06 04:01:18;;;;;;;6.90;3.50;;;13.30;99.90;;;;;;5002897;28;20018;-80
2023/05/06 04:03:46;;;;;;;4.65;3.35;;;13.30;99.90;;;;;;5004006;28;20077;-79
2023/05/06 04:06:18;;;;;;;6.15;3.90;;;13.30;99.90;;;;;;5004646;28;20499;-79
2023/05/06 04:08:44;;;;;;;5.25;4.05;;;13.30;99.90;;;;;;5018540;28;20035;-79
2023/05/06 04:11:16;;;;;;;8.32;4.15;;;13.30;99.90;;;;;;4988279;28;20034;-79
2023/05/06 04:13:41;;;;;;;6.55;4.25;;;13.30;99.90;;;;;;4991828;28;20022;-77
2023/05/06 04:16:08;;;;;;;7.30;3.88;;;13.30;99.90;;;;;;5000442;28;20060;-78
2023/05/06 04:18:34;;;;;;;6.72;3.72;;;13.30;99.90;;;;;;4997095;28;20054;-79
2023/05/06 04:21:00;;;;;;;6.05;3.53;;;13.30;99.90;;;;;;4980463;28;20073;-79
2023/05/06 04:23:25;;;;;;;8.35;3.35;;;13.30;99.90;;;;;;4979877;28;20113;-77
2023/05/06 04:25:51;;;;;;;6.47;3.17;;;13.30;99.90;;;;;;5009989;28;20025;-78
2023/05/06 04:28:17;;;;;;;5.70;3.17;;;13.30;99.90;;;;;;4978846;28;20062;-78
2023/05/06 04:30:44;;;;;;;6.63;3.47;;;13.30;99.90;;;;;;4996689;28;20022;-78
2023/05/06 04:33:13;;;;;;;6.63;3.78;;;13.30;99.90;;;;;;5014914;28;20045;-78
2023/05/06 04:35:39;;;;;;;3.90;3.10;;;13.30;99.90;;;;;;4993476;28;20448;-78
2023/05/06 04:38:08;;;;;;;6.60;3.22;;;13.20;99.90;;;;;;4993239;28;20109;-79
2023/05/06 04:40:38;;;;;;;5.57;2.90;;;13.20;99.90;;;;;;4996771;28;20022;-77
2023/05/06 04:43:03;;;;;;;7.50;2.85;;;13.20;99.90;;;;;;4997987;28;20054;-78
2023/05/06 04:45:29;;;;;;;6.70;3.47;;;13.20;99.90;;;;;;5000275;28;20041;-78
2023/05/06 04:47:54;;;;;;;4.35;3.08;;;13.20;99.90;;;;;;5009701;28;20121;-77
2023/05/06 04:50:20;;;;;;;8.60;3.53;;;13.20;99.90;;;;;;4995570;28;20026;-77
2023/05/06 04:52:46;;;;;;;4.55;3.30;;;13.20;99.90;;;;;;4998875;28;20133;-78
2023/05/06 04:55:14;;;;;;;4.93;2.75;;;13.20;99.90;;;;;;4995343;28;20034;-78
2023/05/06 04:57:40;;;;;;;8.48;3.53;;;13.20;99.90;;;;;;4998837;28;20032;-78
2023/05/06 05:00:09;;;;;;;7.93;3.25;;;13.30;99.90;;;;;;4995605;28;20026;-78
2023/05/06 05:02:34;;;;;;;5.13;3.00;;;13.30;99.90;;;;;;5001359;28;20931;-78
2023/05/06 05:05:00;;;;;;;5.78;2.80;;;13.30;99.90;;;;;;5000223;28;20030;-78
2023/05/06 05:07:26;;;;;;;5.15;2.40;;;13.40;99.90;;;;;;4997778;28;20022;-79
2023/05/06 05:09:54;;;;;;;7.38;2.53;;;13.40;99.90;;;;;;4999819;28;20349;-77
2023/05/06 05:12:20;;;;;;;6.25;2.58;;;13.40;99.90;;;;;;4996421;28;20030;-78
2023/05/06 05:14:46;;;;;;;6.93;2.88;;;13.50;99.90;;;;;;4998855;28;20036;-77
2023/05/06 05:17:14;;;;;;;6.95;2.70;;;13.60;99.90;;;;;;4999737;28;20480;-79
2023/05/06 05:19:40;;;;;;;5.43;3.22;;;13.70;99.90;;;;;;4997812;28;20030;-78
2023/05/06 05:22:09;;;;;;;5.88;3.22;;;13.80;99.90;;;;;;4995931;28;20029;-78
2023/05/06 05:24:34;;;;;;;5.43;3.65;;;13.90;99.90;;;;;;4977369;28;20022;-78
2023/05/06 05:27:01;;;;;;;6.18;3.30;;;14.00;99.90;;;;;;5001501;28;20451;-79
2023/05/06 05:29:29;;;;;;;4.85;3.53;;;14.10;99.90;;;;;;5000275;28;20498;-77
2023/05/06 05:31:55;;;;;;;4.90;3.05;;;14.20;99.90;;;;;;5012665;28;20030;-78
2023/05/06 05:34:20;;;;;;;9.80;4.00;;;14.40;99.90;;;;;;5000492;28;20204;-77
2023/05/06 05:36:46;;;;;;;5.60;3.25;;;14.50;99.90;;;;;;4995545;28;20606;-78
2023/05/06 05:39:12;;;;;;;5.97;3.03;;;14.60;99.90;;;;;;4999001;28;20026;-78
2023/05/06 05:41:37;;;;;;;3.42;2.65;;;14.70;99.90;;;;;;5003520;28;20041;-80
2023/05/06 05:44:03;;;;;;;4.05;3.03;;;14.80;99.90;;;;;;4983620;28;20030;-78
2023/05/06 05:46:29;;;;;;;6.28;2.90;;;14.90;99.90;;;;;;4996521;28;20034;-72
2023/05/06 05:48:54;;;;;;;8.18;3.05;;;15.00;99.90;;;;;;4997458;28;20077;-71
2023/05/06 05:51:23;;;;;;;4.10;2.80;;;15.00;99.90;;;;;;4994862;28;20026;-72
2023/05/06 05:53:50;;;;;;;4.32;3.22;;;15.10;99.90;;;;;;4991385;28;20145;-71
2023/05/06 05:56:16;;;;;;;10.73;4.60;;;15.10;99.90;;;;;;4995741;28;20022;-79
2023/05/06 05:58:42;;;;;;;9.38;4.38;;;15.10;99.90;;;;;;4988585;28;20030;-79
2023/05/06 06:01:09;;;;;;;5.80;4.80;;;15.10;99.90;;;;;;5000846;28;20042;-79
2023/05/06 06:03:34;;;;;;;7.93;4.72;;;15.00;99.90;;;;;;5001920;28;20038;-79
2023/05/06 06:06:00;;;;;;;7.78;5.60;;;15.00;99.90;;;;;;5000056;28;20109;-79
2023/05/06 06:08:26;;;;;;;7.28;5.40;;;14.90;99.90;;;;;;4996868;28;20030;-77
2023/05/06 06:10:51;;;;;;;7.70;5.93;;;14.90;99.90;;;;;;4995260;28;20436;-77
2023/05/06 06:13:20;;;;;;;8.75;6.63;;;14.90;99.90;;;;;;4997128;28;20038;-79
2023/05/06 06:15:46;;;;;;;9.10;6.15;;;14.80;99.90;;;;;;5015842;28;20083;-79
2023/05/06 06:18:12;;;;;;;9.23;6.82;;;14.70;99.90;;;;;;4998491;28;20053;-81
2023/05/06 06:20:37;;;;;;;9.57;7.35;;;14.70;99.90;;;;;;5003813;28;20526;-79
2023/05/06 06:23:03;;;;;;;7.88;6.60;;;14.70;99.90;;;;;;5000299;28;20105;-79
2023/05/06 06:25:29;;;;;;;11.32;7.45;;;14.70;99.90;;;;;;4997712;28;20037;-78
2023/05/06 06:27:57;;;;;;;12.00;8.00;;;14.70;99.90;;;;;;5005218;28;20435;-77
2023/05/06 06:30:26;;;;;;;9.85;7.40;;;14.70;99.90;;;;;;4999333;28;20045;-78
2023/05/06 06:32:53;;;;;;;8.52;6.55;;;14.70;99.90;;;;;;4998339;28;20049;-78
2023/05/06 06:35:19;;;;;;;8.68;6.75;;;14.70;99.90;;;;;;4995479;28;20019;-78
2023/05/06 06:37:45;;;;;;;8.88;6.55;;;14.60;99.90;;;;;;4982281;28;20022;-79
2023/05/06 06:40:12;;;;;;;68.40;15.48;;;14.60;99.90;;;;;;4997994;28;20041;-79
2023/05/06 06:42:37;;;;;;;11.70;7.47;;;14.60;99.90;;;;;;4997050;28;20121;-78
2023/05/06 06:45:03;;;;;;;10.40;7.88;;;14.60;99.90;;;;;;4999546;28;20696;-78
2023/05/06 06:47:45;;;;;;;9.82;6.93;;;14.60;99.90;;;;;;4996423;28;22026;-77
2023/05/06 06:50:10;;;;;;;9.75;6.50;;;14.60;99.90;;;;;;4974938;28;20120;-78
2023/05/06 06:52:39;;;;;;;9.82;7.60;;;14.60;99.90;;;;;;4988854;28;20118;-78
2023/05/06 06:55:05;;;;;;;8.10;6.40;;;14.70;99.90;;;;;;4992952;28;20027;-78
2023/05/06 06:57:32;;;;;;;8.40;7.15;;;14.80;99.90;;;;;;4990249;28;20041;-77
2023/05/06 06:59:57;;;;;;;10.75;7.15;;;14.90;99.90;;;;;;4974413;28;20089;-78
2023/05/06 07:02:23;;;;;;;10.57;7.38;;;15.00;99.90;;;;;;4991428;28;20022;-78
2023/05/06 07:04:48;;;;;;;9.25;7.07;;;15.00;99.90;;;;;;4993241;28;20053;-79
2023/05/06 07:07:14;;;;;;;11.48;7.72;;;15.10;99.90;;;;;;4996670;28;20018;-78
2023/05/06 07:09:43;;;;;;;10.60;7.55;;;15.20;99.90;;;;;;4997417;28;20548;-79
2023/05/06 07:12:09;;;;;;;9.25;7.05;;;15.20;99.90;;;;;;4989970;28;20022;-79
2023/05/06 07:14:34;;;;;;;8.77;6.63;;;15.30;99.90;;;;;;4993436;28;20038;-79
2023/05/06 07:17:00;;;;;;;11.50;6.68;;;15.40;99.90;;;;;;4993056;28;20054;-79
2023/05/06 07:19:30;;;;;;;11.35;7.43;;;15.40;99.90;;;;;;4991723;28;20022;-78
2023/05/06 07:21:56;;;;;;;9.35;6.47;;;15.50;99.90;;;;;;4996990;28;20034;-78
2023/05/06 07:24:25;;;;;;;10.60;7.00;;;15.50;99.90;;;;;;4994467;28;20037;-78
2023/05/06 07:26:50;;;;;;;10.43;7.00;;;15.60;99.90;;;;;;4994681;28;20053;-77
2023/05/06 07:29:16;;;;;;;10.07;7.18;;;15.70;99.90;;;;;;4993008;28;20035;-78
2023/05/06 07:31:45;;;;;;;8.90;6.63;;;15.70;99.90;;;;;;4998993;28;20041;-78
2023/05/06 07:34:13;;;;;;;9.35;6.28;;;15.70;99.90;;;;;;5000325;28;20026;-77
2023/05/06 07:36:45;;;;;;;8.20;6.18;;;15.70;99.90;;;;;;4998420;28;20034;-78
2023/05/06 07:39:13;;;;;;;6.75;5.63;;;15.80;99.90;;;;;;4989863;28;20015;-77
2023/05/06 07:41:39;;;;;;;8.93;5.63;;;15.80;99.90;;;;;;5001651;28;20022;-78
2023/05/06 07:44:05;;;;;;;6.70;5.20;;;15.80;99.90;;;;;;4995991;28;20100;-77
2023/05/06 07:46:31;;;;;;;5.97;4.60;;;15.90;99.90;;;;;;4996777;28;20076;-78
2023/05/06 07:48:56;;;;;;;5.63;4.72;;;15.90;99.90;;;;;;5001431;28;20038;-78
2023/05/06 07:51:28;;;;;;;4.10;3.50;;;15.80;99.90;;;;;;4982039;28;20033;-78
2023/05/06 07:53:54;;;;;;;6.78;4.47;;;15.80;99.90;;;;;;4998243;28;20124;-77
2023/05/06 07:56:23;;;;;;;9.10;4.72;;;15.80;99.90;;;;;;4994574;28;20026;-77
2023/05/06 07:58:48;;;;;;;6.10;4.22;;;15.80;99.90;;;;;;4995364;28;20029;-78
2023/05/06 08:01:16;;;;;;;4.45;3.05;;;15.80;99.90;;;;;;4992642;28;20461;-79
2023/05/06 08:03:42;;;;;;;5.38;3.72;;;15.90;99.90;;;;;;4998658;28;20404;-79
2023/05/06 08:06:11;;;;;;;4.13;3.10;;;16.00;99.90;;;;;;5002016;28;20081;-79
2023/05/06 08:08:40;;;;;;;4.80;2.28;;;16.00;99.90;;;;;;5003050;28;20026;-79
2023/05/06 08:11:05;;;;;;;3.97;2.22;;;16.00;99.90;;;;;;5001761;28;20037;-79
2023/05/06 08:13:32;;;;;;;4.47;2.40;;;16.10;99.90;;;;;;5001444;28;20373;-78
2023/05/06 08:15:58;;;;;;;3.53;2.17;;;16.10;99.90;;;;;;4996399;28;20023;-79
2023/05/06 08:18:26;;;;;;;3.55;2.22;;;16.20;99.90;;;;;;4999021;28;20027;-77
2023/05/06 08:20:55;;;;;;;3.85;1.80;;;16.30;99.90;;;;;;4985870;28;20057;-78
2023/05/06 08:23:20;;;;;;;3.10;2.05;;;16.30;99.90;;;;;;4996058;28;20098;-78
2023/05/06 08:25:52;;;;;;;3.00;1.92;;;16.40;99.90;;;;;;5000412;28;20068;-78
2023/05/06 08:28:18;;;;;;;2.78;2.00;;;16.40;99.90;;;;;;4997155;28;20042;-78
2023/05/06 08:30:47;;;;;;;4.72;1.95;;;16.50;99.90;;;;;;4991991;28;20057;-77
2023/05/06 08:33:13;;;;;;;4.80;1.70;;;16.50;99.90;;;;;;4994596;28;20113;-77
2023/05/06 08:35:38;;;;;;;2.53;1.95;;;16.60;99.90;;;;;;4996230;28;20484;-77
2023/05/06 08:38:04;;;;;;;3.15;1.98;;;16.70;99.90;;;;;;4995040;28;20014;-78
2023/05/06 08:40:32;;;;;;;2.65;1.63;;;16.70;99.90;;;;;;4984567;28;20110;-77
2023/05/06 08:42:59;;;;;;;3.22;1.88;;;16.80;99.90;;;;;;4993867;28;20045;-77
2023/05/06 08:45:28;;;;;;;3.83;1.58;;;16.90;99.90;;;;;;4998782;28;20038;-76
2023/05/06 08:47:54;;;;;;;2.97;1.60;;;16.90;99.90;;;;;;4995442;28;20022;-76
2023/05/06 08:50:19;;;;;;;6.85;2.42;;;16.90;99.90;;;;;;4997307;28;20031;-77
2023/05/06 08:52:47;;;;;;;9.75;1.95;;;17.00;99.90;;;;;;4975148;28;20038;-77
2023/05/06 08:55:13;;;;;;;5.80;1.63;;;17.00;99.90;;;;;;4991248;28;20029;-76
2023/05/06 08:57:44;;;;;;;2.80;1.73;;;17.10;99.90;;;;;;4971301;28;20023;-77
2023/05/06 09:00:10;;;;;;;4.32;1.67;;;17.30;99.90;;;;;;4975448;28;20104;-78
2023/05/06 09:02:37;;;;;;;3.75;1.75;;;17.30;99.90;;;;;;4983124;28;20106;-77
2023/05/06 09:05:03;;;;;;;4.55;1.80;;;17.40;99.90;;;;;;4975539;28;20468;-78
2023/05/06 09:07:29;;;;;;;5.88;1.70;;;17.30;99.90;;;;;;4990783;28;20038;-77
2023/05/06 09:09:55;;;;;;;2.83;1.63;;;17.40;99.90;;;;;;4974226;28;20038;-78
2023/05/06 09:12:23;;;;;;;3.00;1.50;;;17.40;99.90;;;;;;4991686;28;20036;-78
2023/05/06 09:14:50;;;;;;;3.03;1.52;;;17.40;99.90;;;;;;4994854;28;20018;-79
2023/05/06 09:17:25;;;;;;;2.90;1.52;;;17.40;99.90;;;;;;4975378;28;20054;-77
2023/05/06 09:19:58;;;;;;;3.88;2.08;;;17.30;99.90;;;;;;4991851;28;20070;-79
2023/05/06 09:22:26;;;;;;;4.67;2.47;;;17.30;99.90;;;;;;4993880;28;20086;-79
2023/05/06 09:24:58;;;;;;;2.70;1.40;;;17.30;99.90;;;;;;4995426;28;20022;-78
2023/05/06 09:27:28;;;;;;;2.70;1.20;;;17.30;99.90;;;;;;4996394;28;20034;-78
2023/05/06 09:30:14;;;;;;;2.65;1.20;;;17.30;99.90;;;;;;4991445;28;20034;-77
2023/05/06 09:32:42;;;;;;;2.40;1.65;;;17.30;99.90;;;;;;4969069;28;20046;-77
2023/05/06 09:35:09;;;;;;;3.30;1.40;;;17.40;99.90;;;;;;4990071;28;20022;-79
2023/05/06 09:37:44;;;;;;;3.30;1.30;;;17.40;99.90;;;;;;4978572;28;20041;-78
2023/05/06 09:40:10;;;;;;;4.13;1.23;;;17.50;99.90;;;;;;4979336;28;20026;-78
2023/05/06 09:42:42;;;;;;;2.72;1.17;;;17.60;99.90;;;;;;4995626;28;20036;-77
2023/05/06 09:45:16;;;;;;;2.03;0.82;;;17.70;99.90;;;;;;4992090;28;20068;-77
2023/05/06 09:47:41;;;;;;;2.10;1.35;;;17.90;99.90;;;;;;4995379;28;20030;-77
2023/05/06 09:50:08;;;;;;;2.83;1.13;;;17.90;99.90;;;;;;5002649;28;20603;-77
2023/05/06 09:52:34;;;;;;;1.73;1.15;;;18.10;99.90;;;;;;4996734;28;20513;-78
2023/05/06 09:55:02;;;;;;;1.77;1.30;;;18.10;99.90;;;;;;5001636;28;20045;-78
2023/05/06 09:57:31;;;;;;;4.20;1.13;;;18.20;99.90;;;;;;4997509;28;20514;-78
2023/05/06 09:59:57;;;;;;;3.72;1.20;;;18.20;99.90;;;;;;4980885;28;20400;-77
2023/05/06 10:02:23;;;;;;;1.85;0.90;;;18.30;99.90;;;;;;4980582;28;20161;-78
2023/05/06 10:04:49;;;;;;;3.28;1.20;;;18.20;99.90;;;;;;4996484;28;20018;-77
2023/05/06 10:07:24;;;;;;;2.67;1.50;;;18.20;99.90;;;;;;4999562;28;20082;-77
2023/05/06 10:09:51;;;;;;;1.85;0.90;;;18.20;99.90;;;;;;4976727;28;20054;-77
2023/05/06 10:12:17;;;;;;;1.52;0.95;;;18.20;99.90;;;;;;4989541;28;20036;-77
2023/05/06 10:14:43;;;;;;;1.42;0.80;;;18.20;99.90;;;;;;4995942;28;20373;-77
2023/05/06 10:17:11;;;;;;;1.65;0.80;;;18.10;99.90;;;;;;4999936;28;20084;-77
2023/05/06 10:19:41;;;;;;;1.45;0.77;;;18.10;99.90;;;;;;4982169;28;20413;-77
2023/05/06 10:22:29;;;;;;;2.03;1.00;;;18.10;99.90;;;;;;4997160;28;20463;-77
2023/05/06 10:25:11;;;;;;;2.58;0.95;;;18.20;99.90;;;;;;4985507;28;20031;-78
2023/05/06 10:27:40;;;;;;;1.70;0.80;;;18.20;99.90;;;;;;4999431;28;20030;-78
2023/05/06 10:30:08;;;;;;;2.13;0.98;;;18.20;99.90;;;;;;4999626;28;20023;-78
2023/05/06 10:32:37;;;;;;;2.85;0.85;;;18.40;99.90;;;;;;4998476;28;20045;-78
2023/05/06 10:35:11;;;;;;;0.98;0.85;;;18.50;99.90;;;;;;5001116;28;20088;-78
2023/05/06 10:37:39;;;;;;;1.35;0.70;;;18.60;99.90;;;;;;4998425;28;20058;-78
2023/05/06 10:40:08;;;;;;;2.63;1.02;;;18.70;99.90;;;;;;4997303;28;20481;-76
2023/05/06 10:42:34;;;;;;;1.38;0.60;;;18.70;99.90;;;;;;4988843;28;20104;-78
2023/05/06 10:45:02;;;;;;;1.40;0.60;;;18.80;99.90;;;;;;4995548;28;20512;-78
2023/05/06 10:47:57;;;;;;;2.58;0.98;;;18.80;99.90;;;;;;4997092;28;20074;-76
2023/05/06 10:50:26;;;;;;;0.98;0.73;;;18.80;99.40;;;;;;4857550;28;20166;-77
2023/05/06 10:52:57;;;;;;;1.95;0.98;;;18.90;98.80;;;;;;4994580;28;20129;-76
2023/05/06 10:55:46;;;;;;;2.33;0.80;;;18.90;99.00;;;;;;5016953;28;20014;-77
2023/05/06 10:58:17;;;;;;;1.88;1.10;;;18.90;98.50;;;;;;5004389;28;20030;-77
2023/05/06 11:00:56;;;;;;;2.70;0.95;;;19.00;97.90;;;;;;5013746;28;20421;-78
2023/05/06 11:03:22;;;;;;;1.65;0.88;;;19.00;98.50;;;;;;4998045;28;20033;-78
2023/05/06 11:05:50;;;;;;;2.63;0.93;;;19.00;98.70;;;;;;5012161;28;20077;-77
2023/05/06 11:08:26;;;;;;;3.05;1.30;;;19.00;98.50;;;;;;4998624;28;20241;-77
2023/05/06 11:10:53;;;;;;;2.03;1.02;;;19.00;98.20;;;;;;5008116;28;20112;-77
2023/05/06 11:13:33;;;;;;;2.50;0.90;;;19.00;98.10;;;;;;5012304;28;20107;-77
2023/05/06 11:16:00;;;;;;;2.25;0.75;;;19.10;97.20;;;;;;5014926;28;20033;-76
2023/05/06 11:18:35;;;;;;;1.40;0.82;;;19.20;96.30;;;;;;5010219;28;20483;-77
2023/05/06 11:21:01;;;;;;;1.15;0.70;;;19.30;94.40;;;;;;5010588;28;20110;-77
2023/05/06 11:23:52;;;;;;;1.67;0.85;;;19.30;93.70;;;;;;5016382;28;20464;-78
2023/05/06 11:26:18;;;;;;;2.67;0.50;;;19.30;93.20;;;;;;5010273;28;20037;-77
2023/05/06 11:28:46;;;;;;;0.98;0.50;;;19.40;93.00;;;;;;5017352;28;20034;-77
2023/05/06 11:31:12;;;;;;;1.50;0.70;;;19.40;92.80;;;;;;5015025;28;20096;-78
2023/05/06 11:33:49;;;;;;;2.83;0.70;;;19.40;91.50;;;;;;5011694;28;20033;-78
2023/05/06 11:36:19;;;;;;;2.50;0.80;;;19.40;91.30;;;;;;5015516;28;20022;-75
2023/05/06 11:38:51;;;;;;;4.25;1.13;;;19.40;91.10;;;;;;5015744;28;20515;-78
2023/05/06 11:41:23;;;;;;;1.48;0.90;;;19.40;91.50;;;;;;5014334;28;20033;-77
2023/05/06 11:43:50;;;;;;;1.73;0.80;;;19.50;91.10;;;;;;5015355;28;20029;-77
2023/05/06 11:46:20;;;;;;;3.35;0.70;;;19.50;91.00;;;;;;5013926;28;20026;-77
2023/05/06 11:48:46;;;;;;;1.63;0.60;;;19.50;90.00;;;;;;5012241;28;20519;-78
2023/05/06 11:51:12;;;;;;;1.13;0.70;;;19.50;90.30;;;;;;5015971;28;20060;-77
2023/05/06 11:53:38;;;;;;;1.00;0.60;;;19.60;90.00;;;;;;5018026;28;20038;-77
2023/05/06 11:56:07;;;;;;;1.48;0.80;;;19.50;90.00;;;;;;5027824;28;20163;-76
2023/05/06 11:58:33;;;;;;;2.13;0.93;;;19.60;90.50;;;;;;5015775;28;20032;-76
2023/05/06 12:01:00;;;;;;;1.08;0.57;;;19.60;90.60;;;;;;5018712;28;20026;-78
2023/05/06 12:03:27;;;;;;;2.10;0.80;;;19.60;90.90;;;;;;5015616;28;20026;-78
2023/05/06 12:05:54;;;;;;;1.98;0.73;;;19.70;90.90;;;;;;5018683;28;20029;-79
2023/05/06 12:08:34;;;;;;;1.17;0.70;;;19.80;91.00;;;;;;5015220;28;20026;-78
2023/05/06 12:11:10;;;;;;;2.00;0.70;;;19.90;90.70;;;;;;5015123;28;20500;-78
2023/05/06 12:13:39;;;;;;;1.25;1.00;;;19.90;91.10;;;;;;5012820;28;20072;-79
2023/05/06 12:16:07;;;;;;;1.40;0.77;;;20.00;91.20;;;;;;5017624;28;20492;-79
2023/05/06 12:18:32;;;;;;;1.08;0.65;;;20.00;90.90;;;;;;4999047;28;20492;-78
2023/05/06 12:21:04;;;;;;;2.25;1.20;;;20.00;90.50;;;;;;5012553;28;20030;-78
2023/05/06 12:23:30;;;;;;;2.13;0.80;;;19.90;90.50;;;;;;5010137;28;20030;-78
2023/05/06 12:26:07;;;;;;;3.08;0.80;;;19.90;90.60;;;;;;5015075;28;20026;-79
2023/05/06 12:28:35;;;;;;;5.32;1.38;;;20.00;90.70;;;;;;5013891;28;20028;-79
2023/05/06 12:31:20;;;;;;;2.53;0.80;;;20.00;90.30;;;;;;5015328;28;20029;-78
2023/05/06 12:33:50;;;;;;;2.83;0.95;;;20.10;90.10;;;;;;5010014;28;20543;-78
2023/05/06 12:36:19;;;;;;;2.80;0.77;;;20.10;89.30;;;;;;5027577;28;20072;-79
2023/05/06 12:38:53;;;;;;;1.42;0.63;;;20.20;89.40;;;;;;5009446;28;20022;-78
2023/05/06 12:41:20;;;;;;;1.58;0.90;;;20.20;88.10;;;;;;5013034;28;20025;-78
2023/05/06 12:43:46;;;;;;;3.28;0.90;;;20.20;88.20;;;;;;5012248;28;20028;-78
2023/05/06 12:46:18;;;;;;;2.05;0.95;;;20.20;88.80;;;;;;5014380;28;20033;-79
2023/05/06 12:49:00;;;;;;;3.80;0.90;;;20.30;88.80;;;;;;5012731;28;20117;-79
2023/05/06 12:51:32;;;;;;;1.25;0.80;;;20.40;89.10;;;;;;5009780;28;20022;-78